createdAt,value
2019-03-31T00:01:20.909Z,59.75
2019-03-31T00:03:47.874Z,60.53
2019-03-31T00:06:14.842Z,60.50
2019-03-31T00:08:43.128Z,60.59
2019-03-31T00:11:09.992Z,61.23
2019-03-31T00:13:55.615Z,60.95
2019-03-31T00:16:22.343Z,60.02
2019-03-31T00:18:59.442Z,61.11
2019-03-31T00:21:36.842Z,60.57
2019-03-31T00:23:55.283Z,60.21
2019-03-31T00:26:22.182Z,60.32
2019-03-31T00:28:49.150Z,60.46
2019-03-31T00:31:22.073Z,60.66
2019-03-31T00:33:44.353Z,60.74
2019-03-31T00:36:11.535Z,60.27
2019-03-31T00:38:38.839Z,60.37
2019-03-31T00:41:05.781Z,60.78
2019-03-31T00:43:34.896Z,60.13
2019-03-31T00:46:01.747Z,60.75
2019-03-31T00:48:29.124Z,59.96
2019-03-31T00:50:55.958Z,60.09
2019-03-31T00:53:22.789Z,60.00
2019-03-31T00:55:49.635Z,60.07
2019-03-31T00:58:16.523Z,59.63
2019-03-31T01:01:09.936Z,59.94
2019-03-31T01:03:36.657Z,60.08
2019-03-31T01:06:03.938Z,59.71
2019-03-31T01:08:34.611Z,60.49
2019-03-31T01:11:04.370Z,61.52
2019-03-31T01:13:31.401Z,62.45
2019-03-31T01:16:00.152Z,61.87
2019-03-31T01:18:27.163Z,61.32
2019-03-31T01:20:53.925Z,61.36
2019-03-31T01:23:20.987Z,61.68
2019-03-31T01:25:51.050Z,61.56
2019-03-31T01:28:18.349Z,61.36
2019-03-31T01:30:57.347Z,61.36
2019-03-31T01:33:24.240Z,61.23
2019-03-31T01:35:51.127Z,61.67
2019-03-31T01:38:18.162Z,62.04
2019-03-31T01:40:45.230Z,62.12
2019-03-31T01:43:12.354Z,62.57
2019-03-31T01:45:39.151Z,62.51
2019-03-31T01:48:06.580Z,62.64
2019-03-31T01:50:33.493Z,62.41
2019-03-31T01:53:00.137Z,62.65
2019-03-31T01:55:35.765Z,62.86
2019-03-31T01:58:09.232Z,62.50
2019-03-31T02:00:53.012Z,62.69
2019-03-31T02:03:20.173Z,63.11
2019-03-31T02:05:46.887Z,63.41
2019-03-31T02:08:14.259Z,63.52
2019-03-31T02:10:41.050Z,63.23
2019-03-31T02:13:07.937Z,63.16
2019-03-31T02:15:34.686Z,63.14
2019-03-31T02:18:01.452Z,63.51
2019-03-31T02:20:28.138Z,64.53
2019-03-31T02:22:54.861Z,63.62
2019-03-31T02:25:21.949Z,62.88
2019-03-31T02:27:48.635Z,63.58
2019-03-31T02:30:16.192Z,63.25
2019-03-31T02:32:43.093Z,63.07
2019-03-31T02:35:16.906Z,63.40
2019-03-31T02:38:01.474Z,63.50
2019-03-31T02:40:28.146Z,63.88
2019-03-31T02:43:22.942Z,63.77
2019-03-31T02:45:50.072Z,63.27
2019-03-31T02:48:17.099Z,63.17
2019-03-31T02:50:53.141Z,63.66
2019-03-31T02:53:21.264Z,63.63
2019-03-31T02:55:48.156Z,64.03
2019-03-31T02:58:16.422Z,63.90
2019-03-31T03:00:54.520Z,64.03
2019-03-31T03:03:22.662Z,64.21
2019-03-31T03:05:51.654Z,63.96
2019-03-31T03:08:23.226Z,64.15
2019-03-31T03:10:57.665Z,63.91
2019-03-31T03:13:28.299Z,63.74
2019-03-31T03:16:23.009Z,64.14
2019-03-31T03:18:52.977Z,64.77
2019-03-31T03:21:23.729Z,64.58
2019-03-31T03:23:49.340Z,64.67
2019-03-31T03:26:16.075Z,64.05
2019-03-31T03:28:42.845Z,64.63
2019-03-31T03:31:15.090Z,64.89
2019-03-31T03:33:38.292Z,64.75
2019-03-31T03:36:05.014Z,64.69
2019-03-31T03:38:31.821Z,64.63
2019-03-31T03:40:58.470Z,65.40
2019-03-31T03:43:25.130Z,64.95
2019-03-31T03:45:51.809Z,64.89
2019-03-31T03:48:18.451Z,65.89
2019-03-31T03:51:01.548Z,67.24
2019-03-31T03:53:28.215Z,66.75
2019-03-31T03:55:54.856Z,66.62
2019-03-31T03:58:21.795Z,66.65
2019-03-31T04:00:56.307Z,66.92
2019-03-31T04:03:30.732Z,67.09
2019-03-31T04:06:09.383Z,67.71
2019-03-31T04:08:36.185Z,68.53
2019-03-31T04:11:14.527Z,69.10
2019-03-31T04:13:41.288Z,69.22
2019-03-31T04:16:07.922Z,68.43
2019-03-31T04:18:34.549Z,67.74
2019-03-31T04:21:01.373Z,69.04
2019-03-31T04:23:28.045Z,68.40
2019-03-31T04:26:00.703Z,68.21
2019-03-31T04:28:30.744Z,67.39
2019-03-31T04:30:59.222Z,66.99
2019-03-31T04:33:25.956Z,67.14
2019-03-31T04:36:00.258Z,66.76
2019-03-31T04:38:26.977Z,67.05
2019-03-31T04:40:53.767Z,67.71
2019-03-31T04:43:21.632Z,68.69
2019-03-31T04:45:48.267Z,68.47
2019-03-31T04:48:14.979Z,68.12
2019-03-31T04:50:42.174Z,68.43
2019-03-31T04:53:08.873Z,67.74
2019-03-31T04:55:35.524Z,68.22
2019-03-31T04:58:05.216Z,68.48
2019-03-31T05:00:31.858Z,68.12
2019-03-31T05:02:58.531Z,68.19
2019-03-31T05:05:25.698Z,69.23
2019-03-31T05:07:52.405Z,68.24
2019-03-31T05:10:19.106Z,68.13
2019-03-31T05:12:45.844Z,68.04
2019-03-31T05:15:12.565Z,69.64
2019-03-31T05:17:39.634Z,69.87
2019-03-31T05:20:06.589Z,70.19
2019-03-31T05:22:33.304Z,69.79
2019-03-31T05:25:00.052Z,69.80
2019-03-31T05:27:26.776Z,69.22
2019-03-31T05:29:53.462Z,69.27
2019-03-31T05:32:20.189Z,69.04
2019-03-31T05:34:46.810Z,68.96
2019-03-31T05:37:13.455Z,68.27
2019-03-31T05:39:40.413Z,68.15
2019-03-31T05:42:07.043Z,67.63
2019-03-31T05:44:33.693Z,67.00
2019-03-31T05:47:00.347Z,67.08
2019-03-31T05:49:27.550Z,67.26
2019-03-31T05:52:24.963Z,66.97
2019-03-31T05:54:49.471Z,66.51
2019-03-31T05:57:16.118Z,66.02
2019-03-31T05:59:43.271Z,65.01
2019-03-31T06:02:09.942Z,65.73
2019-03-31T06:04:36.741Z,65.32
2019-03-31T06:07:04.141Z,64.62
2019-03-31T06:09:30.865Z,64.55
2019-03-31T06:11:57.729Z,63.78
2019-03-31T06:14:24.372Z,63.58
2019-03-31T06:16:51.483Z,64.34
2019-03-31T06:19:18.125Z,64.67
2019-03-31T06:21:44.793Z,64.76
2019-03-31T06:24:11.536Z,65.03
2019-03-31T06:26:38.671Z,64.60
2019-03-31T06:29:05.413Z,64.59
2019-03-31T06:31:35.342Z,63.73
2019-03-31T06:34:02.070Z,63.90
2019-03-31T06:36:28.741Z,63.73
2019-03-31T06:38:55.396Z,64.33
2019-03-31T06:41:22.031Z,64.56
2019-03-31T06:43:48.813Z,64.81
2019-03-31T06:46:15.941Z,64.29
2019-03-31T06:48:42.572Z,64.05
2019-03-31T06:51:09.258Z,65.32
2019-03-31T06:53:36.701Z,65.35
2019-03-31T06:56:03.461Z,65.93
2019-03-31T06:58:31.726Z,66.81
2019-03-31T07:00:58.376Z,67.29
2019-03-31T07:03:25.059Z,67.57
2019-03-31T07:05:51.777Z,68.50
2019-03-31T07:08:18.481Z,68.24
2019-03-31T07:10:47.090Z,67.73
2019-03-31T07:13:15.220Z,67.90
2019-03-31T07:15:41.812Z,67.78
2019-03-31T07:18:08.522Z,67.86
2019-03-31T07:20:35.173Z,68.91
2019-03-31T07:23:01.927Z,68.40
2019-03-31T07:25:28.558Z,68.73
2019-03-31T07:27:55.402Z,68.49
2019-03-31T07:30:22.853Z,69.92
2019-03-31T07:32:49.600Z,70.61
2019-03-31T07:35:18.605Z,70.93
2019-03-31T07:37:47.608Z,71.22
2019-03-31T07:40:15.593Z,70.90
2019-03-31T07:42:42.386Z,70.46
2019-03-31T07:45:10.395Z,72.27
2019-03-31T07:47:38.074Z,72.38
2019-03-31T07:50:05.494Z,73.12
2019-03-31T07:52:32.146Z,73.28
2019-03-31T07:54:58.886Z,72.71
2019-03-31T07:57:25.522Z,72.73
2019-03-31T07:59:58.438Z,72.08
2019-03-31T08:02:25.627Z,71.01
2019-03-31T08:04:52.497Z,71.39
2019-03-31T08:07:22.483Z,72.78
2019-03-31T08:09:52.228Z,74.04
2019-03-31T08:12:19.026Z,73.99
2019-03-31T08:14:45.840Z,74.72
2019-03-31T08:17:12.656Z,73.70
2019-03-31T08:19:39.891Z,73.91
2019-03-31T08:22:06.634Z,74.08
2019-03-31T08:24:43.311Z,73.60
2019-03-31T08:27:09.995Z,73.71
2019-03-31T08:29:36.648Z,73.31
2019-03-31T08:32:06.556Z,73.44
2019-03-31T08:34:33.777Z,74.01
2019-03-31T08:37:00.506Z,74.19
2019-03-31T08:39:28.132Z,73.77
2019-03-31T08:41:54.808Z,74.20
2019-03-31T08:44:21.476Z,74.21
2019-03-31T08:46:48.459Z,74.82
2019-03-31T08:49:15.199Z,74.94
2019-03-31T08:51:42.197Z,74.70
2019-03-31T08:54:11.664Z,74.75
2019-03-31T08:56:38.793Z,73.50
2019-03-31T08:59:08.753Z,73.10
2019-03-31T09:01:44.139Z,72.98
2019-03-31T09:04:08.402Z,72.68
2019-03-31T09:06:36.142Z,72.51
2019-03-31T09:09:03.202Z,71.87
2019-03-31T09:11:29.868Z,72.41
2019-03-31T09:13:57.696Z,72.38
2019-03-31T09:16:24.320Z,71.19
2019-03-31T09:18:50.940Z,71.23
2019-03-31T09:21:17.659Z,71.55
2019-03-31T09:23:45.161Z,71.03
2019-03-31T09:26:11.869Z,72.15
2019-03-31T09:28:38.564Z,70.90
2019-03-31T09:31:05.460Z,70.56
2019-03-31T09:33:32.129Z,70.65
2019-03-31T09:35:58.796Z,70.35
2019-03-31T09:38:25.622Z,70.47
2019-03-31T09:40:52.243Z,70.00
2019-03-31T09:43:19.055Z,70.44
2019-03-31T09:45:45.665Z,70.06
2019-03-31T09:48:12.443Z,69.89
2019-03-31T09:50:39.101Z,69.72
2019-03-31T09:53:05.805Z,69.48
2019-03-31T09:55:32.622Z,69.51
2019-03-31T09:57:59.761Z,69.81
2019-03-31T10:00:53.475Z,69.19
2019-03-31T10:03:26.465Z,69.37
2019-03-31T10:05:53.515Z,68.88
2019-03-31T10:08:22.284Z,68.60
2019-03-31T10:10:48.627Z,68.76
2019-03-31T10:13:15.421Z,68.05
2019-03-31T10:15:42.211Z,68.00
2019-03-31T10:18:08.864Z,68.12
2019-03-31T10:20:35.450Z,67.58
2019-03-31T10:23:02.146Z,67.43
2019-03-31T10:25:29.387Z,67.16
2019-03-31T10:27:56.463Z,66.83
2019-03-31T10:30:37.237Z,66.84
2019-03-31T10:33:03.976Z,66.45
2019-03-31T10:35:30.903Z,66.17
2019-03-31T10:37:57.621Z,66.08
2019-03-31T10:40:24.264Z,66.17
2019-03-31T10:42:51.143Z,66.22
2019-03-31T10:45:17.897Z,65.52
2019-03-31T10:47:44.587Z,65.82
2019-03-31T10:50:11.363Z,65.86
2019-03-31T10:53:01.323Z,65.51
2019-03-31T10:55:28.158Z,65.13
2019-03-31T10:57:56.985Z,65.01
2019-03-31T11:00:36.508Z,64.73
2019-03-31T11:03:03.640Z,63.99
2019-03-31T11:05:30.295Z,63.11
2019-03-31T11:07:57.181Z,62.60
2019-03-31T11:10:23.960Z,63.08
2019-03-31T11:12:50.982Z,62.32
2019-03-31T11:15:17.591Z,62.51
2019-03-31T11:17:44.190Z,61.89
2019-03-31T11:20:10.942Z,61.33
2019-03-31T11:22:41.877Z,61.38
2019-03-31T11:25:20.334Z,61.16
2019-03-31T11:27:37.665Z,60.83
2019-03-31T11:30:04.891Z,60.53
2019-03-31T11:32:34.793Z,61.00
2019-03-31T11:35:01.464Z,60.50
2019-03-31T11:37:28.148Z,59.44
2019-03-31T11:39:54.740Z,59.45
2019-03-31T11:42:21.436Z,58.94
2019-03-31T11:44:48.144Z,59.02
2019-03-31T11:47:14.797Z,59.02
2019-03-31T11:49:58.823Z,59.02
2019-03-31T11:52:31.827Z,59.43
2019-03-31T11:54:58.523Z,58.81
2019-03-31T11:57:25.631Z,58.17
2019-03-31T11:59:52.572Z,58.86
2019-03-31T12:02:27.067Z,58.01
2019-03-31T12:04:47.815Z,58.40
2019-03-31T12:07:27.381Z,58.22
2019-03-31T12:09:43.851Z,58.14
2019-03-31T12:12:10.653Z,58.34
2019-03-31T12:14:37.440Z,58.16
2019-03-31T12:17:08.325Z,58.10
2019-03-31T12:19:35.054Z,58.11
2019-03-31T12:22:05.163Z,57.23
2019-03-31T12:24:31.902Z,57.74
2019-03-31T12:26:59.069Z,57.89
2019-03-31T12:29:26.249Z,57.41
2019-03-31T12:31:53.003Z,56.70
2019-03-31T12:34:19.689Z,56.80
2019-03-31T12:36:46.379Z,57.62
2019-03-31T12:39:13.071Z,57.64
2019-03-31T12:41:39.731Z,57.69
2019-03-31T12:44:06.833Z,57.00
2019-03-31T12:46:36.616Z,56.51
2019-03-31T12:49:03.253Z,56.62
2019-03-31T12:51:29.966Z,56.41
2019-03-31T12:53:56.977Z,56.42
2019-03-31T12:56:24.025Z,56.57
2019-03-31T12:58:50.748Z,56.12
2019-03-31T13:01:18.110Z,55.59
2019-03-31T13:03:44.800Z,55.78
2019-03-31T13:06:13.543Z,56.24
2019-03-31T13:08:40.175Z,56.08
2019-03-31T13:11:07.311Z,56.56
2019-03-31T13:13:34.538Z,56.09
2019-03-31T13:16:11.562Z,55.27
2019-03-31T13:18:38.523Z,54.89
2019-03-31T13:21:05.605Z,55.54
2019-03-31T13:23:33.004Z,55.10
2019-03-31T13:26:00.304Z,55.04
2019-03-31T13:28:27.166Z,55.81
2019-03-31T13:30:53.985Z,55.60
2019-03-31T13:33:21.159Z,55.01
2019-03-31T13:35:47.858Z,54.74
2019-03-31T13:38:16.209Z,54.25
2019-03-31T13:40:43.148Z,54.51
2019-03-31T13:43:09.852Z,53.42
2019-03-31T13:45:37.385Z,53.71
2019-03-31T13:48:04.136Z,54.15
2019-03-31T13:50:30.804Z,53.66
2019-03-31T13:52:57.592Z,53.95
2019-03-31T13:55:24.216Z,54.51
2019-03-31T13:57:52.660Z,53.83
2019-03-31T14:00:35.430Z,54.45
2019-03-31T14:03:02.339Z,54.68
2019-03-31T14:05:29.086Z,54.04
2019-03-31T14:07:57.885Z,54.38
2019-03-31T14:10:24.877Z,54.21
2019-03-31T14:12:51.658Z,54.35
2019-03-31T14:15:19.661Z,54.73
2019-03-31T14:17:46.719Z,54.36
2019-03-31T14:20:13.731Z,53.25
2019-03-31T14:22:40.844Z,53.11
2019-03-31T14:25:07.782Z,53.00
2019-03-31T14:27:34.477Z,53.21
2019-03-31T14:30:01.261Z,53.37
2019-03-31T14:32:28.106Z,53.43
2019-03-31T14:34:56.264Z,53.17
2019-03-31T14:37:23.226Z,53.33
2019-03-31T14:39:49.955Z,53.50
2019-03-31T14:42:20.632Z,54.04
2019-03-31T14:44:47.280Z,53.59
2019-03-31T14:47:14.872Z,53.87
2019-03-31T14:49:41.665Z,53.71
2019-03-31T14:52:08.491Z,53.96
2019-03-31T14:54:35.152Z,53.03
2019-03-31T14:57:02.760Z,52.75
2019-03-31T14:59:29.367Z,53.14
2019-03-31T15:01:56.438Z,53.05
2019-03-31T15:04:29.774Z,52.62
2019-03-31T15:06:56.489Z,52.63
2019-03-31T15:09:23.158Z,53.17
2019-03-31T15:11:50.375Z,53.56
2019-03-31T15:14:17.232Z,53.68
2019-03-31T15:16:44.382Z,53.52
2019-03-31T15:19:11.124Z,53.38
2019-03-31T15:21:43.816Z,53.56
2019-03-31T15:24:07.579Z,53.30
2019-03-31T15:26:37.170Z,54.12
2019-03-31T15:29:04.380Z,53.29
2019-03-31T15:31:36.101Z,53.72
2019-03-31T15:34:01.926Z,53.91
2019-03-31T15:36:29.189Z,54.24
2019-03-31T15:39:08.314Z,53.65
2019-03-31T15:41:24.996Z,53.45
2019-03-31T15:43:52.167Z,53.78
2019-03-31T15:46:20.475Z,53.22
2019-03-31T15:48:50.255Z,53.13
2019-03-31T15:51:17.040Z,53.21
2019-03-31T15:53:44.055Z,52.80
2019-03-31T15:56:11.275Z,53.29
2019-03-31T15:58:38.140Z,53.03
2019-03-31T16:01:04.840Z,52.87
2019-03-31T16:03:33.462Z,53.81
2019-03-31T16:06:00.423Z,53.27
2019-03-31T16:08:27.006Z,53.34
2019-03-31T16:10:53.471Z,54.12
2019-03-31T16:13:20.558Z,52.88
2019-03-31T16:15:46.746Z,53.26
2019-03-31T16:18:13.059Z,53.78
2019-03-31T16:21:02.311Z,54.13
2019-03-31T16:23:29.742Z,54.66
2019-03-31T16:25:57.627Z,54.37
2019-03-31T16:28:23.716Z,55.12
2019-03-31T16:30:50.228Z,54.87
2019-03-31T16:33:16.471Z,54.54
2019-03-31T16:35:48.975Z,54.81
2019-03-31T16:38:15.041Z,54.50
2019-03-31T16:40:41.205Z,54.29
2019-03-31T16:43:07.271Z,54.37
2019-03-31T16:45:33.825Z,54.67
2019-03-31T16:47:59.953Z,54.57
2019-03-31T16:50:30.321Z,54.79
2019-03-31T16:52:56.389Z,54.32
2019-03-31T16:55:24.962Z,53.96
2019-03-31T16:57:50.351Z,53.47
2019-03-31T17:00:19.135Z,53.25
2019-03-31T17:02:49.707Z,53.19
2019-03-31T17:05:22.282Z,53.31
2019-03-31T17:07:44.746Z,53.83
2019-03-31T17:10:11.142Z,53.64
2019-03-31T17:12:37.254Z,53.76
2019-03-31T17:15:03.340Z,53.56
2019-03-31T17:17:30.668Z,53.84
2019-03-31T17:19:56.766Z,53.87
2019-03-31T17:22:23.229Z,53.72
2019-03-31T17:24:49.877Z,53.90
2019-03-31T17:27:16.294Z,54.16
2019-03-31T17:29:42.688Z,54.40
2019-03-31T17:32:08.628Z,54.04
2019-03-31T17:34:34.634Z,54.46
2019-03-31T17:37:00.644Z,55.18
2019-03-31T17:39:26.739Z,54.86
2019-03-31T17:41:54.551Z,54.45
2019-03-31T17:44:20.432Z,54.47
2019-03-31T17:46:46.296Z,53.65
2019-03-31T17:49:12.573Z,53.55
2019-03-31T17:51:38.564Z,53.57
2019-03-31T17:54:06.163Z,53.83
2019-03-31T17:56:33.589Z,54.16
2019-03-31T17:58:59.478Z,53.88
2019-03-31T18:01:25.776Z,54.43
2019-03-31T18:03:51.730Z,54.49
2019-03-31T18:06:28.659Z,54.02
2019-03-31T18:08:54.793Z,53.62
2019-03-31T18:11:20.813Z,54.13
2019-03-31T18:13:46.825Z,54.04
2019-03-31T18:16:13.104Z,53.75
2019-03-31T18:18:39.327Z,54.09
2019-03-31T18:21:05.426Z,54.03
2019-03-31T18:23:31.950Z,54.29
2019-03-31T18:26:21.960Z,53.25
2019-03-31T18:28:51.219Z,53.63
2019-03-31T18:31:17.305Z,53.77
2019-03-31T18:33:43.432Z,54.00
2019-03-31T18:36:09.518Z,53.68
2019-03-31T18:38:38.426Z,53.06
2019-03-31T18:41:04.535Z,53.02
2019-03-31T18:43:30.758Z,53.30
2019-03-31T18:46:00.259Z,52.66
2019-03-31T18:48:26.874Z,52.52
2019-03-31T18:50:53.195Z,52.57
2019-03-31T18:53:34.216Z,52.38
2019-03-31T18:56:22.134Z,52.72
2019-03-31T18:59:13.118Z,52.70
2019-03-31T19:02:01.246Z,52.18
2019-03-31T19:04:46.101Z,52.85
2019-03-31T19:07:43.490Z,52.41
2019-03-31T19:10:31.061Z,52.02
2019-03-31T19:13:31.380Z,52.25
2019-03-31T19:16:16.637Z,52.42
2019-03-31T19:18:53.530Z,52.07
2019-03-31T19:21:38.673Z,52.24
2019-03-31T19:24:18.047Z,51.98
2019-03-31T19:27:18.393Z,52.17
2019-03-31T19:30:01.470Z,51.77
2019-03-31T19:32:46.778Z,51.91
2019-03-31T19:35:43.768Z,51.56
2019-03-31T19:38:18.549Z,51.54
2019-03-31T19:41:04.519Z,50.67
2019-03-31T19:43:49.681Z,50.46
2019-03-31T19:46:43.924Z,50.47
2019-03-31T19:49:47.369Z,49.29
2019-03-31T19:52:27.605Z,49.16
2019-03-31T19:55:05.502Z,48.50
2019-03-31T19:57:46.485Z,48.48
2019-03-31T20:00:31.035Z,48.47
2019-03-31T20:03:18.768Z,48.10
2019-03-31T20:06:02.754Z,48.01
2019-03-31T20:08:45.165Z,47.97
2019-03-31T20:11:15.578Z,47.54
2019-03-31T20:14:07.106Z,47.48
2019-03-31T20:16:40.912Z,47.62
2019-03-31T20:19:31.735Z,47.36
2019-03-31T20:22:06.498Z,47.87
2019-03-31T20:25:00.384Z,48.29
2019-03-31T20:27:48.255Z,47.89
2019-03-31T20:30:30.444Z,49.10
2019-03-31T20:33:15.269Z,48.22
2019-03-31T20:35:50.535Z,48.17
2019-03-31T20:38:25.684Z,48.59
2019-03-31T20:41:09.473Z,48.28
2019-03-31T20:44:00.510Z,48.90
2019-03-31T20:46:26.554Z,49.35
2019-03-31T20:48:52.982Z,48.96
2019-03-31T20:51:18.809Z,48.76
2019-03-31T20:53:44.735Z,49.14
2019-03-31T20:56:13.077Z,49.07
2019-03-31T20:58:39.192Z,49.44
2019-03-31T21:01:05.461Z,49.36
2019-03-31T21:03:31.328Z,49.57
2019-03-31T21:05:57.639Z,49.95
2019-03-31T21:08:23.620Z,50.09
2019-03-31T21:10:49.857Z,49.42
2019-03-31T21:13:15.667Z,50.15
2019-03-31T21:15:41.755Z,50.55
2019-03-31T21:18:07.966Z,50.27
2019-03-31T21:20:34.327Z,50.36
2019-03-31T21:23:03.319Z,50.57
2019-03-31T21:25:29.566Z,51.11
2019-03-31T21:27:55.586Z,50.89
2019-03-31T21:30:21.531Z,51.34
2019-03-31T21:32:47.751Z,50.85
2019-03-31T21:35:13.819Z,51.59
2019-03-31T21:37:39.605Z,51.51
2019-03-31T21:40:06.088Z,51.90
2019-03-31T21:42:32.164Z,51.97
2019-03-31T21:44:58.027Z,51.97
2019-03-31T21:47:23.808Z,52.17
2019-03-31T21:49:49.600Z,52.37
2019-03-31T21:52:17.976Z,52.16
2019-03-31T21:54:43.793Z,52.52
2019-03-31T21:57:09.656Z,52.72
2019-03-31T21:59:35.736Z,52.80
2019-03-31T22:02:01.693Z,52.91
2019-03-31T22:04:27.811Z,53.00
2019-03-31T22:06:53.640Z,53.43
2019-03-31T22:09:19.457Z,53.69
2019-03-31T22:11:45.275Z,53.79
2019-03-31T22:14:11.094Z,53.19
2019-03-31T22:16:36.964Z,53.15
2019-03-31T22:19:02.812Z,53.29
2019-03-31T22:21:29.029Z,53.37
2019-03-31T22:23:58.122Z,53.16
2019-03-31T22:26:22.441Z,53.18
2019-03-31T22:28:48.452Z,53.34
2019-03-31T22:31:17.192Z,53.08
2019-03-31T22:33:42.989Z,52.74
2019-03-31T22:36:24.577Z,52.62
2019-03-31T22:38:51.036Z,53.20
2019-03-31T22:41:16.991Z,52.53
2019-03-31T22:43:42.810Z,52.85
2019-03-31T22:46:08.649Z,52.80
2019-03-31T22:48:34.476Z,53.01
2019-03-31T22:51:00.312Z,52.50
2019-03-31T22:53:26.602Z,52.70
2019-03-31T22:55:52.485Z,52.45
2019-03-31T22:58:18.477Z,52.07
2019-03-31T23:00:44.298Z,52.37
2019-03-31T23:03:10.208Z,52.19
2019-03-31T23:05:36.155Z,52.20
2019-03-31T23:08:02.016Z,52.22
2019-03-31T23:10:27.962Z,52.57
2019-03-31T23:12:53.872Z,53.13
2019-03-31T23:15:20.881Z,52.73
2019-03-31T23:17:46.835Z,52.82
2019-03-31T23:20:12.724Z,53.23
2019-03-31T23:22:38.529Z,52.93
2019-03-31T23:25:06.447Z,53.14
2019-03-31T23:27:32.637Z,52.81
2019-03-31T23:29:58.715Z,52.69
2019-03-31T23:32:24.569Z,53.31
2019-03-31T23:34:50.476Z,54.00
2019-03-31T23:37:16.981Z,53.11
2019-03-31T23:39:42.770Z,53.49
2019-03-31T23:42:08.605Z,53.61
2019-03-31T23:44:36.660Z,53.82
2019-03-31T23:47:02.509Z,53.79
2019-03-31T23:49:28.311Z,54.16
2019-03-31T23:51:54.597Z,54.87
2019-03-31T23:54:20.712Z,54.58
2019-03-31T23:56:46.608Z,54.62
2019-03-31T23:59:12.434Z,54.75
